createdAt,value
2018-06-08T00:01:06.448Z,20.26
2018-06-08T00:03:35.754Z,20.14
2018-06-08T00:06:04.531Z,20.15
2018-06-08T00:08:33.356Z,20.27
2018-06-08T00:11:02.295Z,20.20
2018-06-08T00:13:31.499Z,20.28
2018-06-08T00:16:00.290Z,20.34
2018-06-08T00:18:29.346Z,20.08
2018-06-08T00:20:58.154Z,20.10
2018-06-08T00:23:26.972Z,20.08
2018-06-08T00:25:56.067Z,20.24
2018-06-08T00:28:24.819Z,20.03
2018-06-08T00:30:53.564Z,19.93
2018-06-08T00:33:22.744Z,19.86
2018-06-08T00:35:51.487Z,19.77
2018-06-08T00:38:20.057Z,19.68
2018-06-08T00:40:48.929Z,19.44
2018-06-08T00:43:17.671Z,19.45
2018-06-08T00:45:46.453Z,19.52
2018-06-08T00:48:15.583Z,19.37
2018-06-08T00:50:44.318Z,19.37
2018-06-08T00:53:12.897Z,19.43
2018-06-08T00:55:41.793Z,19.35
2018-06-08T00:58:10.702Z,19.27
2018-06-08T01:00:39.447Z,19.18
2018-06-08T01:03:09.039Z,19.22
2018-06-08T01:05:37.788Z,19.16
2018-06-08T01:08:06.540Z,19.22
2018-06-08T01:10:35.642Z,19.05
2018-06-08T01:13:04.536Z,19.19
2018-06-08T01:15:33.337Z,19.36
2018-06-08T01:18:02.386Z,19.21
2018-06-08T01:20:31.140Z,19.15
2018-06-08T01:22:59.931Z,19.07
2018-06-08T01:25:28.967Z,18.86
2018-06-08T01:27:57.703Z,18.97
2018-06-08T01:30:26.476Z,19.09
2018-06-08T01:32:55.528Z,19.08
2018-06-08T01:35:24.473Z,19.03
2018-06-08T01:37:53.050Z,18.76
2018-06-08T01:40:22.420Z,18.94
2018-06-08T01:42:51.470Z,18.64
2018-06-08T01:45:26.356Z,18.66
2018-06-08T01:47:55.247Z,18.80
2018-06-08T01:50:24.232Z,18.68
2018-06-08T01:52:53.335Z,18.76
2018-06-08T01:55:22.072Z,18.64
2018-06-08T01:57:50.629Z,18.55
2018-06-08T02:00:19.899Z,18.45
2018-06-08T02:02:48.983Z,18.09
2018-06-08T02:05:17.727Z,18.28
2018-06-08T02:07:46.602Z,18.18
2018-06-08T02:10:15.349Z,18.09
2018-06-08T02:12:44.354Z,18.12
2018-06-08T02:15:13.357Z,17.97
2018-06-08T02:17:42.088Z,17.97
2018-06-08T02:20:10.684Z,17.75
2018-06-08T02:22:39.714Z,17.52
2018-06-08T02:25:08.368Z,17.66
2018-06-08T02:27:37.117Z,17.74
2018-06-08T02:30:06.300Z,17.79
2018-06-08T02:32:35.056Z,17.48
2018-06-08T02:35:03.918Z,17.51
2018-06-08T02:37:33.079Z,17.38
2018-06-08T02:40:01.877Z,17.72
2018-06-08T02:42:30.629Z,17.71
2018-06-08T02:44:59.752Z,17.56
2018-06-08T02:47:28.506Z,17.45
2018-06-08T02:49:57.307Z,17.43
2018-06-08T02:52:26.428Z,17.27
2018-06-08T02:54:55.204Z,17.31
2018-06-08T02:57:23.942Z,17.29
2018-06-08T02:59:52.821Z,17.26
2018-06-08T03:02:21.731Z,17.27
2018-06-08T03:04:50.304Z,17.46
2018-06-08T03:07:19.356Z,17.15
2018-06-08T03:09:48.079Z,17.24
2018-06-08T03:12:16.845Z,17.18
2018-06-08T03:14:46.332Z,17.57
2018-06-08T03:17:15.075Z,17.63
2018-06-08T03:19:43.823Z,17.26
2018-06-08T03:22:12.931Z,17.50
2018-06-08T03:24:41.700Z,17.45
2018-06-08T03:27:10.493Z,17.34
2018-06-08T03:29:39.568Z,17.28
2018-06-08T03:32:08.335Z,17.40
2018-06-08T03:34:36.926Z,16.94
2018-06-08T03:37:05.876Z,17.22
2018-06-08T03:39:34.672Z,17.43
2018-06-08T03:42:03.412Z,17.62
2018-06-08T03:44:32.856Z,17.78
2018-06-08T03:47:01.609Z,17.96
2018-06-08T03:49:30.394Z,17.88
2018-06-08T03:51:59.428Z,18.16
2018-06-08T03:54:28.171Z,18.50
2018-06-08T03:56:56.956Z,18.60
2018-06-08T03:59:25.894Z,18.48
2018-06-08T04:01:54.632Z,18.08
2018-06-08T04:04:23.479Z,17.85
2018-06-08T04:06:52.578Z,17.64
2018-06-08T04:09:21.320Z,17.93
2018-06-08T04:11:50.318Z,17.86
2018-06-08T04:14:19.351Z,17.95
2018-06-08T04:16:48.010Z,18.36
2018-06-08T04:19:17.088Z,18.14
2018-06-08T04:21:46.240Z,18.88
2018-06-08T04:24:15.007Z,19.36
2018-06-08T04:26:44.060Z,19.56
2018-06-08T04:29:13.220Z,18.90
2018-06-08T04:31:41.974Z,18.70
2018-06-08T04:34:10.832Z,19.26
2018-06-08T04:36:39.926Z,19.38
2018-06-08T04:39:09.279Z,19.40
2018-06-08T04:41:38.057Z,19.12
2018-06-08T04:44:07.112Z,19.63
2018-06-08T04:46:35.868Z,19.54
2018-06-08T04:49:04.599Z,19.33
2018-06-08T04:51:33.718Z,20.35
2018-06-08T04:54:02.539Z,20.58
2018-06-08T04:56:31.302Z,20.56
2018-06-08T04:59:00.436Z,20.80
2018-06-08T05:01:29.179Z,20.96
2018-06-08T05:03:57.928Z,20.91
2018-06-08T05:06:27.376Z,20.88
2018-06-08T05:08:56.133Z,21.23
2018-06-08T05:11:24.897Z,21.76
2018-06-08T05:13:53.680Z,21.78
2018-06-08T05:16:22.443Z,21.91
2018-06-08T05:18:51.622Z,21.96
2018-06-08T05:21:20.396Z,21.97
2018-06-08T05:23:48.981Z,22.11
2018-06-08T05:26:18.204Z,22.29
2018-06-08T05:28:46.949Z,22.35
2018-06-08T05:31:15.772Z,22.29
2018-06-08T05:33:44.920Z,22.97
2018-06-08T05:36:13.679Z,22.72
2018-06-08T05:38:42.694Z,23.14
2018-06-08T05:41:11.808Z,22.89
2018-06-08T05:43:40.599Z,23.31
2018-06-08T05:46:09.351Z,22.81
2018-06-08T05:48:38.480Z,22.12
2018-06-08T05:51:07.232Z,23.04
2018-06-08T05:53:35.982Z,23.19
2018-06-08T05:56:05.262Z,23.22
2018-06-08T05:58:33.992Z,22.94
2018-06-08T06:01:02.612Z,23.27
2018-06-08T06:03:31.744Z,23.05
2018-06-08T06:06:00.483Z,22.90
2018-06-08T06:08:29.307Z,23.52
2018-06-08T06:10:58.417Z,23.73
2018-06-08T06:13:27.189Z,24.20
2018-06-08T06:15:55.928Z,23.26
2018-06-08T06:18:24.789Z,24.83
2018-06-08T06:20:53.619Z,25.02
2018-06-08T06:23:22.205Z,24.40
2018-06-08T06:25:51.349Z,24.53
2018-06-08T06:28:20.098Z,25.15
2018-06-08T06:30:49.401Z,25.65
2018-06-08T06:33:18.540Z,25.25
2018-06-08T06:35:47.291Z,25.94
2018-06-08T06:38:16.109Z,26.17
2018-06-08T06:40:45.066Z,26.34
2018-06-08T06:43:14.075Z,26.81
2018-06-08T06:45:43.250Z,26.31
2018-06-08T06:48:12.139Z,26.65
2018-06-08T06:50:40.739Z,26.00
2018-06-08T06:53:09.556Z,26.78
2018-06-08T06:55:38.671Z,26.88
2018-06-08T06:58:07.533Z,25.90
2018-06-08T07:00:36.264Z,26.78
2018-06-08T07:03:05.350Z,27.40
2018-06-08T07:05:34.099Z,27.92
2018-06-08T07:08:02.846Z,27.77
2018-06-08T07:10:31.964Z,27.56
2018-06-08T07:13:00.571Z,27.48
2018-06-08T07:15:29.347Z,27.98
2018-06-08T07:17:58.294Z,28.35
2018-06-08T07:20:27.039Z,28.56
2018-06-08T07:22:55.948Z,27.97
2018-06-08T07:25:24.762Z,27.77
2018-06-08T07:27:53.771Z,28.15
2018-06-08T07:30:22.849Z,28.30
2018-06-08T07:32:51.629Z,28.34
2018-06-08T07:35:20.456Z,29.36
2018-06-08T07:37:49.607Z,29.16
2018-06-08T07:40:18.493Z,29.17
2018-06-08T07:42:47.244Z,28.79
2018-06-08T07:45:15.878Z,28.90
2018-06-08T07:47:45.268Z,28.75
2018-06-08T07:50:14.286Z,28.35
2018-06-08T07:52:43.407Z,28.22
2018-06-08T07:55:12.487Z,29.38
2018-06-08T07:57:41.238Z,29.26
2018-06-08T08:00:10.132Z,29.57
2018-06-08T08:02:39.213Z,28.52
2018-06-08T08:05:07.805Z,28.08
2018-06-08T08:07:36.560Z,28.18
2018-06-08T08:10:05.740Z,28.95
2018-06-08T08:12:34.367Z,28.24
2018-06-08T08:15:03.240Z,29.40
2018-06-08T08:17:32.355Z,28.65
2018-06-08T08:20:00.958Z,28.61
2018-06-08T08:22:29.984Z,28.81
2018-06-08T08:24:58.990Z,29.59
2018-06-08T08:27:27.744Z,29.56
2018-06-08T08:29:56.516Z,29.51
2018-06-08T08:32:25.799Z,29.82
2018-06-08T08:34:54.677Z,29.15
2018-06-08T08:37:23.759Z,28.77
2018-06-08T08:39:52.852Z,28.66
2018-06-08T08:42:21.864Z,28.47
2018-06-08T08:44:50.712Z,29.02
2018-06-08T08:47:19.843Z,28.99
2018-06-08T08:49:48.683Z,29.32
2018-06-08T08:52:17.728Z,29.82
2018-06-08T08:54:47.171Z,29.80
2018-06-08T08:57:15.790Z,29.81
2018-06-08T08:59:44.570Z,29.74
2018-06-08T09:02:13.903Z,29.62
2018-06-08T09:04:42.917Z,29.13
2018-06-08T09:07:11.704Z,30.01
2018-06-08T09:09:40.788Z,29.11
2018-06-08T09:12:09.736Z,30.07
2018-06-08T09:14:38.587Z,31.37
2018-06-08T09:17:07.565Z,31.19
2018-06-08T09:19:36.405Z,31.38
2018-06-08T09:22:05.206Z,30.11
2018-06-08T09:24:34.345Z,31.28
2018-06-08T09:27:03.404Z,31.80
2018-06-08T09:29:32.168Z,30.58
2018-06-08T09:32:01.219Z,30.54
2018-06-08T09:34:29.957Z,31.49
2018-06-08T09:36:58.766Z,31.59
2018-06-08T09:39:27.895Z,31.59
2018-06-08T09:41:56.936Z,31.83
2018-06-08T09:44:25.953Z,31.12
2018-06-08T09:46:55.090Z,31.90
2018-06-08T09:49:24.080Z,32.58
2018-06-08T09:51:52.695Z,31.11
2018-06-08T09:54:21.759Z,29.40
2018-06-08T09:56:50.518Z,30.77
2018-06-08T09:59:19.251Z,29.87
2018-06-08T10:01:48.632Z,30.27
2018-06-08T10:04:17.303Z,31.00
2018-06-08T10:06:46.040Z,29.84
2018-06-08T10:09:15.005Z,30.46
2018-06-08T10:11:43.748Z,30.20
2018-06-08T10:14:12.455Z,30.45
2018-06-08T10:16:41.507Z,30.46
2018-06-08T10:19:10.335Z,29.99
2018-06-08T10:21:39.120Z,29.94
2018-06-08T10:24:08.032Z,30.31
2018-06-08T10:26:36.779Z,30.95
2018-06-08T10:29:05.598Z,30.90
2018-06-08T10:31:34.578Z,30.79
2018-06-08T10:34:03.382Z,30.33
2018-06-08T10:36:32.206Z,30.63
2018-06-08T10:39:01.306Z,30.48
2018-06-08T10:41:30.166Z,30.49
2018-06-08T10:43:58.900Z,30.69
2018-06-08T10:46:27.936Z,30.21
2018-06-08T10:48:56.903Z,30.18
2018-06-08T10:51:25.659Z,30.55
2018-06-08T10:53:54.859Z,30.34
2018-06-08T10:56:23.831Z,29.88
2018-06-08T10:58:52.588Z,29.91
2018-06-08T11:01:21.640Z,30.28
2018-06-08T11:03:50.367Z,30.39
2018-06-08T11:06:19.168Z,30.48
2018-06-08T11:08:47.946Z,30.26
2018-06-08T11:11:16.614Z,30.84
2018-06-08T11:13:45.657Z,30.13
2018-06-08T11:16:15.030Z,29.91
2018-06-08T11:18:43.816Z,30.23
2018-06-08T11:21:12.564Z,30.31
2018-06-08T11:23:41.771Z,30.92
2018-06-08T11:26:10.509Z,30.13
2018-06-08T11:28:39.332Z,30.08
2018-06-08T11:31:08.446Z,29.60
2018-06-08T11:33:37.179Z,30.41
2018-06-08T11:36:05.755Z,30.99
2018-06-08T11:38:34.775Z,30.97
2018-06-08T11:41:03.556Z,30.68
2018-06-08T11:43:32.356Z,30.57
2018-06-08T11:46:01.497Z,30.23
2018-06-08T11:48:30.247Z,30.44
2018-06-08T11:50:58.997Z,30.31
2018-06-08T11:53:28.066Z,30.63
2018-06-08T11:55:56.703Z,30.77
2018-06-08T11:58:25.440Z,30.79
2018-06-08T12:00:54.448Z,30.63
2018-06-08T12:03:23.193Z,30.50
2018-06-08T12:05:52.257Z,30.73
2018-06-08T12:08:21.335Z,31.33
2018-06-08T12:10:49.951Z,31.55
2018-06-08T12:13:18.687Z,30.97
2018-06-08T12:15:47.788Z,30.56
2018-06-08T12:18:16.508Z,30.98
2018-06-08T12:20:45.296Z,31.26
2018-06-08T12:23:14.355Z,31.28
2018-06-08T12:25:43.104Z,31.18
2018-06-08T12:28:11.852Z,31.27
2018-06-08T12:30:40.974Z,31.09
2018-06-08T12:33:10.024Z,30.72
2018-06-08T12:35:38.768Z,30.44
2018-06-08T12:38:07.811Z,30.57
2018-06-08T12:40:36.594Z,30.50
2018-06-08T12:43:05.355Z,30.88
2018-06-08T12:45:40.552Z,31.06
2018-06-08T12:48:09.297Z,31.29
2018-06-08T12:50:38.055Z,31.39
2018-06-08T12:53:07.002Z,31.07
2018-06-08T12:55:36.003Z,31.13
2018-06-08T12:58:04.783Z,31.21
2018-06-08T13:00:33.834Z,31.68
2018-06-08T13:03:02.415Z,31.75
2018-06-08T13:05:31.002Z,31.29
2018-06-08T13:07:59.979Z,30.71
2018-06-08T13:10:28.566Z,31.11
2018-06-08T13:12:57.297Z,31.36
2018-06-08T13:15:26.420Z,30.98
2018-06-08T13:17:55.492Z,31.24
2018-06-08T13:20:24.306Z,31.25
2018-06-08T13:22:53.713Z,31.34
2018-06-08T13:25:22.454Z,31.66
2018-06-08T13:27:51.203Z,31.38
2018-06-08T13:30:20.574Z,31.36
2018-06-08T13:32:49.376Z,31.46
2018-06-08T13:35:18.588Z,30.86
2018-06-08T13:37:47.771Z,30.89
2018-06-08T13:40:16.515Z,31.01
2018-06-08T13:42:45.118Z,31.00
2018-06-08T13:45:20.294Z,30.97
2018-06-08T13:47:49.039Z,31.16
2018-06-08T13:50:17.783Z,31.26
2018-06-08T13:52:46.903Z,31.18
2018-06-08T13:55:15.703Z,31.38
2018-06-08T13:57:44.292Z,30.14
2018-06-08T14:00:13.175Z,30.48
2018-06-08T14:02:41.761Z,30.35
2018-06-08T14:05:10.337Z,29.90
2018-06-08T14:07:39.435Z,30.22
2018-06-08T14:10:08.188Z,30.49
2018-06-08T14:12:37.178Z,30.32
2018-06-08T14:15:06.093Z,30.49
2018-06-08T14:17:34.839Z,30.28
2018-06-08T14:20:03.737Z,30.25
2018-06-08T14:22:32.852Z,30.43
2018-06-08T14:25:01.611Z,30.20
2018-06-08T14:27:30.743Z,30.28
2018-06-08T14:29:59.841Z,30.33
2018-06-08T14:32:28.626Z,30.05
2018-06-08T14:35:00.283Z,30.14
2018-06-08T14:37:29.092Z,30.01
2018-06-08T14:39:57.821Z,30.06
2018-06-08T14:42:26.771Z,30.02
2018-06-08T14:44:55.563Z,29.95
2018-06-08T14:47:24.604Z,29.56
2018-06-08T14:49:53.695Z,30.00
2018-06-08T14:52:22.523Z,29.85
2018-06-08T14:54:51.260Z,29.70
2018-06-08T14:57:20.516Z,29.82
2018-06-08T14:59:49.258Z,29.76
2018-06-08T15:02:23.218Z,29.67
2018-06-08T15:04:51.947Z,29.63
2018-06-08T15:07:20.791Z,29.24
2018-06-08T15:09:50.200Z,28.94
2018-06-08T15:12:19.140Z,29.01
2018-06-08T15:14:47.717Z,28.86
2018-06-08T15:17:16.800Z,28.80
2018-06-08T15:19:45.583Z,28.60
2018-06-08T15:22:14.366Z,28.81
2018-06-08T15:24:43.448Z,28.61
2018-06-08T15:27:12.199Z,28.60
2018-06-08T15:29:40.935Z,28.47
2018-06-08T15:32:10.025Z,28.54
2018-06-08T15:34:38.800Z,28.57
2018-06-08T15:37:07.866Z,28.34
2018-06-08T15:39:36.880Z,28.08
2018-06-08T15:42:06.144Z,27.75
2018-06-08T15:44:34.938Z,27.95
2018-06-08T15:47:03.987Z,27.67
2018-06-08T15:49:33.047Z,27.60
2018-06-08T15:52:01.816Z,27.71
2018-06-08T15:54:30.666Z,27.52
2018-06-08T15:56:59.464Z,27.41
2018-06-08T15:59:28.209Z,27.13
2018-06-08T16:01:57.347Z,27.06
2018-06-08T16:04:26.091Z,27.09
2018-06-08T16:06:54.843Z,26.98
2018-06-08T16:09:24.019Z,27.05
2018-06-08T16:11:52.761Z,27.10
2018-06-08T16:14:21.509Z,27.09
2018-06-08T16:16:50.828Z,27.20
2018-06-08T16:19:19.410Z,27.07
2018-06-08T16:21:48.220Z,27.08
2018-06-08T16:24:17.091Z,26.88
2018-06-08T16:26:45.846Z,26.76
2018-06-08T16:29:14.573Z,26.78
2018-06-08T16:31:43.882Z,26.66
2018-06-08T16:34:12.677Z,26.64
2018-06-08T16:36:41.241Z,26.73
2018-06-08T16:39:10.411Z,26.54
2018-06-08T16:41:39.180Z,26.55
2018-06-08T16:44:08.005Z,26.38
2018-06-08T16:46:37.199Z,26.48
2018-06-08T16:49:05.957Z,26.38
2018-06-08T16:51:34.712Z,26.53
2018-06-08T16:54:03.665Z,26.53
2018-06-08T16:56:32.410Z,26.60
2018-06-08T16:59:01.216Z,26.46
2018-06-08T17:01:30.520Z,26.67
2018-06-08T17:03:59.266Z,26.54
2018-06-08T17:06:28.032Z,26.71
2018-06-08T17:08:57.120Z,26.67
2018-06-08T17:11:26.122Z,26.51
2018-06-08T17:13:54.876Z,26.37
2018-06-08T17:16:23.894Z,26.33
2018-06-08T17:18:52.616Z,26.48
2018-06-08T17:21:21.627Z,26.44
2018-06-08T17:23:50.492Z,26.31
2018-06-08T17:26:19.511Z,26.18
2018-06-08T17:28:48.466Z,26.32
2018-06-08T17:31:17.220Z,26.14
2018-06-08T17:33:45.974Z,26.17
2018-06-08T17:36:15.036Z,26.16
2018-06-08T17:38:43.784Z,26.14
2018-06-08T17:41:12.527Z,26.11
2018-06-08T17:43:41.858Z,25.88
2018-06-08T17:46:10.526Z,25.96
2018-06-08T17:48:39.323Z,25.98
2018-06-08T17:51:08.389Z,25.93
2018-06-08T17:53:37.148Z,25.79
2018-06-08T17:56:05.936Z,25.82
2018-06-08T17:58:35.352Z,25.64
2018-06-08T18:01:04.168Z,25.63
2018-06-08T18:03:32.907Z,25.48
2018-06-08T18:06:02.346Z,25.44
2018-06-08T18:08:31.082Z,25.49
2018-06-08T18:10:59.652Z,25.35
2018-06-08T18:13:28.771Z,25.36
2018-06-08T18:15:57.516Z,25.29
2018-06-08T18:18:26.287Z,25.24
2018-06-08T18:20:56.079Z,25.17
2018-06-08T18:23:24.840Z,25.15
2018-06-08T18:25:53.619Z,25.12
2018-06-08T18:28:22.630Z,24.98
2018-06-08T18:30:51.209Z,24.90
2018-06-08T18:33:19.848Z,24.87
2018-06-08T18:35:48.958Z,25.08
2018-06-08T18:38:17.978Z,24.72
2018-06-08T18:40:46.665Z,24.64
2018-06-08T18:43:15.731Z,24.48
2018-06-08T18:45:47.783Z,24.31
2018-06-08T18:48:17.158Z,24.24
2018-06-08T18:50:46.308Z,24.18
2018-06-08T18:53:15.471Z,24.11
2018-06-08T18:55:44.511Z,24.08
2018-06-08T18:58:13.840Z,24.07
2018-06-08T19:00:42.672Z,24.08
2018-06-08T19:03:11.788Z,24.13
2018-06-08T19:05:40.544Z,24.04
2018-06-08T19:08:09.284Z,24.06
2018-06-08T19:10:38.469Z,24.08
2018-06-08T19:13:07.196Z,24.13
2018-06-08T19:15:35.996Z,24.03
2018-06-08T19:18:05.507Z,23.95
2018-06-08T19:20:34.247Z,23.95
2018-06-08T19:23:03.008Z,23.90
2018-06-08T19:25:32.124Z,23.81
2018-06-08T19:28:00.782Z,23.77
2018-06-08T19:30:29.639Z,23.71
2018-06-08T19:32:58.530Z,23.63
2018-06-08T19:35:27.138Z,23.72
2018-06-08T19:37:55.866Z,23.56
2018-06-08T19:40:27.043Z,23.62
2018-06-08T19:42:55.952Z,23.62
2018-06-08T19:45:31.855Z,23.55
2018-06-08T19:48:00.592Z,23.50
2018-06-08T19:50:29.462Z,23.57
2018-06-08T19:52:58.539Z,23.38
2018-06-08T19:55:27.291Z,23.33
2018-06-08T19:57:56.037Z,23.32
2018-06-08T20:00:25.213Z,23.31
2018-06-08T20:02:54.690Z,23.29
2018-06-08T20:05:23.549Z,23.14
2018-06-08T20:07:52.600Z,23.04
2018-06-08T20:10:21.386Z,23.03
2018-06-08T20:12:50.217Z,23.10
2018-06-08T20:15:19.524Z,22.99
2018-06-08T20:17:48.275Z,22.90
2018-06-08T20:20:17.019Z,22.85
2018-06-08T20:22:46.063Z,22.84
2018-06-08T20:25:14.796Z,22.72
2018-06-08T20:27:43.840Z,22.65
2018-06-08T20:30:12.859Z,22.75
2018-06-08T20:32:41.620Z,22.74
2018-06-08T20:35:10.397Z,22.71
2018-06-08T20:37:39.523Z,22.72
2018-06-08T20:40:08.312Z,22.57
2018-06-08T20:42:37.059Z,22.72
2018-06-08T20:45:06.195Z,22.61
2018-06-08T20:47:34.980Z,22.58
2018-06-08T20:50:03.805Z,22.67
2018-06-08T20:52:33.070Z,22.48
2018-06-08T20:55:01.832Z,22.58
2018-06-08T20:57:30.827Z,22.47
2018-06-08T20:59:59.947Z,22.56
2018-06-08T21:02:29.004Z,22.42
2018-06-08T21:04:57.849Z,22.46
2018-06-08T21:07:27.711Z,22.24
2018-06-08T21:09:56.460Z,22.24
2018-06-08T21:12:26.032Z,22.21
2018-06-08T21:14:55.170Z,22.19
2018-06-08T21:17:24.059Z,22.20
2018-06-08T21:19:52.806Z,22.14
2018-06-08T21:22:21.859Z,22.02
2018-06-08T21:24:50.605Z,22.01
2018-06-08T21:27:19.364Z,21.99
2018-06-08T21:29:48.499Z,21.98
2018-06-08T21:32:17.230Z,22.12
2018-06-08T21:34:45.804Z,22.04
2018-06-08T21:37:14.867Z,22.06
2018-06-08T21:39:43.606Z,22.04
2018-06-08T21:42:12.824Z,21.90
2018-06-08T21:44:41.946Z,22.03
2018-06-08T21:47:10.694Z,21.94
2018-06-08T21:49:39.434Z,22.06
2018-06-08T21:52:08.524Z,21.95
2018-06-08T21:54:37.270Z,21.94
2018-06-08T21:57:06.359Z,21.95
2018-06-08T21:59:35.302Z,21.95
2018-06-08T22:02:04.242Z,21.95
2018-06-08T22:04:33.458Z,21.87
2018-06-08T22:07:02.305Z,21.85
2018-06-08T22:09:31.124Z,21.97
2018-06-08T22:12:00.284Z,21.87
2018-06-08T22:14:29.288Z,22.05
2018-06-08T22:16:58.037Z,21.97
2018-06-08T22:19:27.159Z,21.91
2018-06-08T22:21:55.932Z,21.89
2018-06-08T22:24:24.682Z,21.92
2018-06-08T22:26:53.865Z,21.88
2018-06-08T22:29:22.600Z,21.92
2018-06-08T22:31:51.731Z,21.85
2018-06-08T22:34:20.771Z,21.93
2018-06-08T22:36:49.361Z,21.78
2018-06-08T22:39:18.098Z,21.91
2018-06-08T22:41:47.083Z,21.81
2018-06-08T22:44:15.869Z,21.67
2018-06-08T22:46:44.592Z,21.78
2018-06-08T22:49:13.621Z,21.59
2018-06-08T22:51:42.813Z,21.45
2018-06-08T22:54:11.911Z,21.49
2018-06-08T22:56:41.151Z,21.60
2018-06-08T22:59:09.896Z,21.64
2018-06-08T23:01:38.675Z,21.49
2018-06-08T23:04:07.623Z,21.54
2018-06-08T23:06:36.353Z,21.34
2018-06-08T23:09:08.278Z,21.54
2018-06-08T23:11:37.635Z,21.36
2018-06-08T23:14:06.380Z,21.47
2018-06-08T23:16:35.464Z,21.46
2018-06-08T23:19:04.419Z,21.59
2018-06-08T23:21:33.205Z,21.56
2018-06-08T23:24:02.369Z,21.48
2018-06-08T23:26:31.109Z,21.54
2018-06-08T23:28:59.847Z,21.54
2018-06-08T23:31:28.904Z,21.68
2018-06-08T23:33:57.529Z,21.48
2018-06-08T23:36:26.932Z,21.51
2018-06-08T23:38:55.660Z,21.59
2018-06-08T23:41:24.387Z,21.59
2018-06-08T23:43:53.429Z,21.57
2018-06-08T23:46:22.211Z,21.40
2018-06-08T23:48:50.938Z,21.32
2018-06-08T23:51:20.060Z,21.31
2018-06-08T23:53:48.852Z,21.28
2018-06-08T23:56:17.563Z,21.40
2018-06-08T23:58:46.624Z,21.27
